createdAt,value
2018-09-08T00:01:26.336Z,15.30
2018-09-08T00:03:54.483Z,15.30
2018-09-08T00:06:28.177Z,15.30
2018-09-08T00:08:56.262Z,15.20
2018-09-08T00:13:49.465Z,15.10
2018-09-08T00:16:22.902Z,15.20
2018-09-08T00:18:56.422Z,15.10
2018-09-08T00:21:29.999Z,15.10
2018-09-08T00:24:03.450Z,15.00
2018-09-08T00:26:33.719Z,15.00
2018-09-08T00:29:08.755Z,14.90
2018-09-08T00:31:36.803Z,14.90
2018-09-08T00:34:04.867Z,15.00
2018-09-08T00:36:33.079Z,15.00
2018-09-08T00:39:01.188Z,14.90
2018-09-08T00:41:29.333Z,14.80
2018-09-08T00:43:57.418Z,14.70
2018-09-08T00:46:25.505Z,14.70
2018-09-08T00:48:53.550Z,14.60
2018-09-08T00:51:21.640Z,14.60
2018-09-08T00:53:49.722Z,14.50
2018-09-08T00:56:17.789Z,14.50
2018-09-08T00:58:51.424Z,14.50
2018-09-08T01:01:19.495Z,14.50
2018-09-08T01:03:47.671Z,14.40
2018-09-08T01:06:15.703Z,14.40
2018-09-08T01:08:43.826Z,14.50
2018-09-08T01:11:11.909Z,14.60
2018-09-08T01:13:39.981Z,14.60
2018-09-08T01:16:08.056Z,14.60
2018-09-08T01:18:36.802Z,14.50
2018-09-08T01:21:05.982Z,14.50
2018-09-08T01:23:34.110Z,14.60
2018-09-08T01:26:02.393Z,14.60
2018-09-08T01:28:30.516Z,14.70
2018-09-08T01:30:58.595Z,14.70
2018-09-08T01:33:26.903Z,14.70
2018-09-08T01:35:55.228Z,14.70
2018-09-08T01:38:23.300Z,14.80
2018-09-08T01:40:51.372Z,14.80
2018-09-08T01:43:19.503Z,14.80
2018-09-08T01:45:47.578Z,14.80
2018-09-08T01:48:15.697Z,14.90
2018-09-08T01:50:43.781Z,14.90
2018-09-08T01:53:11.862Z,14.90
2018-09-08T01:55:39.917Z,15.00
2018-09-08T01:58:07.986Z,15.00
2018-09-08T02:00:36.481Z,15.00
2018-09-08T02:03:04.763Z,14.90
2018-09-08T02:05:32.928Z,14.90
2018-09-08T02:08:01.020Z,14.90
2018-09-08T02:10:29.117Z,14.90
2018-09-08T02:12:57.159Z,14.90
2018-09-08T02:15:25.236Z,14.90
2018-09-08T02:17:53.367Z,14.90
2018-09-08T02:20:21.468Z,14.90
2018-09-08T02:22:49.531Z,14.90
2018-09-08T02:25:17.649Z,14.90
2018-09-08T02:27:45.724Z,14.90
2018-09-08T02:30:13.770Z,14.90
2018-09-08T02:32:41.897Z,14.80
2018-09-08T02:35:09.944Z,14.80
2018-09-08T02:37:37.974Z,14.80
2018-09-08T02:40:06.060Z,14.80
2018-09-08T02:42:34.219Z,14.80
2018-09-08T02:45:02.324Z,14.80
2018-09-08T02:47:30.372Z,14.80
2018-09-08T02:50:09.985Z,14.80
2018-09-08T02:52:37.145Z,14.80
2018-09-08T02:55:04.343Z,14.80
2018-09-08T02:57:31.532Z,14.70
2018-09-08T02:59:58.712Z,14.70
2018-09-08T03:02:25.895Z,14.80
2018-09-08T03:04:53.124Z,14.80
2018-09-08T03:07:20.335Z,14.80
2018-09-08T03:09:47.554Z,14.80
2018-09-08T03:12:14.744Z,14.80
2018-09-08T03:14:41.937Z,14.80
2018-09-08T03:17:09.151Z,14.70
2018-09-08T03:19:36.362Z,14.70
2018-09-08T03:22:03.532Z,14.70
2018-09-08T03:24:30.733Z,14.70
2018-09-08T03:26:57.914Z,14.60
2018-09-08T03:29:25.124Z,14.50
2018-09-08T03:31:52.353Z,14.50
2018-09-08T03:34:19.545Z,14.40
2018-09-08T03:36:46.715Z,14.40
2018-09-08T03:39:13.908Z,14.30
2018-09-08T03:41:41.105Z,14.20
2018-09-08T03:44:08.301Z,14.20
2018-09-08T03:46:35.491Z,14.10
2018-09-08T03:49:02.729Z,14.10
2018-09-08T03:51:29.924Z,14.10
2018-09-08T03:53:57.106Z,14.20
2018-09-08T03:56:24.293Z,14.10
2018-09-08T03:58:51.642Z,14.10
2018-09-08T04:01:18.802Z,14.10
2018-09-08T04:03:47.087Z,14.00
2018-09-08T04:06:15.231Z,14.00
2018-09-08T04:08:43.369Z,14.00
2018-09-08T04:11:11.598Z,13.90
2018-09-08T04:13:39.674Z,13.90
2018-09-08T04:16:07.775Z,13.80
2018-09-08T04:18:36.030Z,13.80
2018-09-08T04:21:04.121Z,13.80
2018-09-08T04:23:32.200Z,13.80
2018-09-08T04:26:00.718Z,13.90
2018-09-08T04:28:28.944Z,13.90
2018-09-08T04:30:57.052Z,13.90
2018-09-08T04:33:25.185Z,13.90
2018-09-08T04:35:53.269Z,13.80
2018-09-08T04:38:21.611Z,13.70
2018-09-08T04:40:49.729Z,13.70
2018-09-08T04:43:17.985Z,13.70
2018-09-08T04:45:46.143Z,13.70
2018-09-08T04:48:14.232Z,13.70
2018-09-08T04:50:42.816Z,13.70
2018-09-08T04:53:10.862Z,13.70
2018-09-08T04:55:39.054Z,13.80
2018-09-08T04:58:07.165Z,13.70
2018-09-08T05:00:35.404Z,13.70
2018-09-08T05:03:03.560Z,13.70
2018-09-08T05:05:31.848Z,13.80
2018-09-08T05:07:59.909Z,13.80
2018-09-08T05:10:28.084Z,13.80
2018-09-08T05:12:56.936Z,13.80
2018-09-08T05:15:25.058Z,13.80
2018-09-08T05:17:53.170Z,13.80
2018-09-08T05:20:21.273Z,13.80
2018-09-08T05:22:49.376Z,13.90
2018-09-08T05:25:17.470Z,14.00
2018-09-08T05:27:45.535Z,14.10
2018-09-08T05:30:13.607Z,14.10
2018-09-08T05:32:41.851Z,14.10
2018-09-08T05:35:09.969Z,14.10
2018-09-08T05:37:38.024Z,14.10
2018-09-08T05:40:06.334Z,14.10
2018-09-08T05:42:34.395Z,14.10
2018-09-08T05:45:02.456Z,14.30
2018-09-08T05:47:30.540Z,14.40
2018-09-08T05:49:58.592Z,14.50
2018-09-08T05:52:26.689Z,14.50
2018-09-08T05:54:54.800Z,14.60
2018-09-08T05:57:22.946Z,14.60
2018-09-08T05:59:51.310Z,14.70
2018-09-08T06:02:20.167Z,14.70
2018-09-08T06:04:48.756Z,14.80
2018-09-08T06:07:16.847Z,14.90
2018-09-08T06:09:44.915Z,15.00
2018-09-08T06:12:13.095Z,15.10
2018-09-08T06:14:41.166Z,15.20
2018-09-08T06:17:09.291Z,15.40
2018-09-08T06:19:39.056Z,15.60
2018-09-08T06:22:07.154Z,15.50
2018-09-08T06:24:35.346Z,15.40
2018-09-08T06:27:03.348Z,15.40
2018-09-08T06:29:31.397Z,15.40
2018-09-08T06:31:59.565Z,15.50
2018-09-08T06:34:27.649Z,15.60
2018-09-08T06:36:55.776Z,15.50
2018-09-08T06:39:25.841Z,15.50
2018-09-08T06:41:53.927Z,15.60
2018-09-08T06:44:21.982Z,15.70
2018-09-08T06:46:50.087Z,15.80
2018-09-08T06:49:18.236Z,15.90
2018-09-08T06:51:46.333Z,16.00
2018-09-08T06:54:14.424Z,16.00
2018-09-08T06:56:42.757Z,16.10
2018-09-08T06:59:10.813Z,16.10
2018-09-08T07:01:38.955Z,16.20
2018-09-08T07:04:07.067Z,16.20
2018-09-08T07:06:35.128Z,16.30
2018-09-08T07:09:03.252Z,16.60
2018-09-08T07:11:31.318Z,16.90
2018-09-08T07:13:59.457Z,17.50
2018-09-08T07:16:27.537Z,18.10
2018-09-08T07:18:55.641Z,18.40
2018-09-08T07:21:23.737Z,18.70
2018-09-08T07:23:51.867Z,18.60
2018-09-08T07:26:19.928Z,18.40
2018-09-08T07:28:48.007Z,18.50
2018-09-08T07:31:16.104Z,18.30
2018-09-08T07:33:44.183Z,17.90
2018-09-08T07:36:12.230Z,17.60
2018-09-08T07:38:40.307Z,17.30
2018-09-08T07:41:08.385Z,17.20
2018-09-08T07:43:36.463Z,17.20
2018-09-08T07:46:05.066Z,17.30
2018-09-08T07:48:33.145Z,17.40
2018-09-08T07:51:01.218Z,17.40
2018-09-08T07:53:31.247Z,17.50
2018-09-08T07:55:59.184Z,17.70
2018-09-08T07:58:27.264Z,17.70
2018-09-08T08:00:55.409Z,17.60
2018-09-08T08:03:23.476Z,17.60
2018-09-08T08:05:51.703Z,17.60
2018-09-08T08:08:19.782Z,17.60
2018-09-08T08:10:47.825Z,17.70
2018-09-08T08:13:15.932Z,17.70
2018-09-08T08:15:43.995Z,17.70
2018-09-08T08:18:12.047Z,17.80
2018-09-08T08:20:40.121Z,17.90
2018-09-08T08:23:08.227Z,18.00
2018-09-08T08:25:36.266Z,17.90
2018-09-08T08:28:04.342Z,17.90
2018-09-08T08:30:32.413Z,18.00
2018-09-08T08:33:00.450Z,18.20
2018-09-08T08:35:28.554Z,18.30
2018-09-08T08:37:56.637Z,18.30
2018-09-08T08:40:24.715Z,18.20
2018-09-08T08:42:52.791Z,18.30
2018-09-08T08:45:20.869Z,18.30
2018-09-08T08:47:48.951Z,18.50
2018-09-08T08:50:28.649Z,18.60
2018-09-08T08:53:08.154Z,18.50
2018-09-08T08:55:36.292Z,18.40
2018-09-08T08:58:04.347Z,18.50
2018-09-08T09:00:32.475Z,18.60
2018-09-08T09:03:00.547Z,18.70
2018-09-08T09:05:28.669Z,18.80
2018-09-08T09:07:56.747Z,18.70
2018-09-08T09:10:24.856Z,18.70
2018-09-08T09:12:52.968Z,18.80
2018-09-08T09:15:21.377Z,18.90
2018-09-08T09:17:49.220Z,18.90
2018-09-08T09:20:28.787Z,18.90
2018-09-08T09:24:12.026Z,18.90
2018-09-08T09:26:40.064Z,18.70
2018-09-08T09:29:08.162Z,18.80
2018-09-08T09:31:36.319Z,18.90
2018-09-08T09:34:04.436Z,19.00
2018-09-08T09:36:32.592Z,18.90
2018-09-08T09:39:00.893Z,19.00
2018-09-08T09:41:28.951Z,19.10
2018-09-08T09:43:57.007Z,19.10
2018-09-08T09:46:25.129Z,19.00
2018-09-08T09:48:53.227Z,19.10
2018-09-08T09:51:21.303Z,19.20
2018-09-08T09:53:49.358Z,19.20
2018-09-08T09:56:17.445Z,19.10
2018-09-08T09:58:45.507Z,19.10
2018-09-08T10:01:13.638Z,19.10
2018-09-08T10:03:41.790Z,19.30
2018-09-08T10:06:09.872Z,19.30
2018-09-08T10:08:37.944Z,19.30
2018-09-08T10:11:06.185Z,19.40
2018-09-08T10:13:34.322Z,19.50
2018-09-08T10:16:02.448Z,19.60
2018-09-08T10:18:30.567Z,19.70
2018-09-08T10:20:58.635Z,19.80
2018-09-08T10:23:26.776Z,20.50
2018-09-08T10:25:54.858Z,19.90
2018-09-08T10:28:22.931Z,20.00
2018-09-08T10:30:51.022Z,20.00
2018-09-08T10:33:19.084Z,20.00
2018-09-08T10:35:47.149Z,20.10
2018-09-08T10:38:15.211Z,20.20
2018-09-08T10:40:43.286Z,20.20
2018-09-08T10:43:11.364Z,20.10
2018-09-08T10:45:39.446Z,20.00
2018-09-08T10:48:07.501Z,20.30
2018-09-08T10:50:35.564Z,20.40
2018-09-08T10:53:03.623Z,20.60
2018-09-08T10:55:31.720Z,20.60
2018-09-08T10:57:59.815Z,20.40
2018-09-08T11:00:27.974Z,20.40
2018-09-08T11:02:56.168Z,20.40
2018-09-08T11:05:24.170Z,20.60
2018-09-08T11:07:52.233Z,20.70
2018-09-08T11:10:20.286Z,20.80
2018-09-08T11:12:48.460Z,20.70
2018-09-08T11:15:16.555Z,20.50
2018-09-08T11:17:44.748Z,20.20
2018-09-08T11:20:12.863Z,20.30
2018-09-08T11:22:40.916Z,20.40
2018-09-08T11:25:08.973Z,20.50
2018-09-08T11:27:37.056Z,20.70
2018-09-08T11:30:05.982Z,20.90
2018-09-08T11:32:34.060Z,20.80
2018-09-08T11:35:02.114Z,20.90
2018-09-08T11:37:30.199Z,20.80
2018-09-08T11:39:58.338Z,20.50
2018-09-08T11:42:26.663Z,20.60
2018-09-08T11:44:54.922Z,20.80
2018-09-08T11:47:22.910Z,21.00
2018-09-08T11:49:51.066Z,21.10
2018-09-08T11:52:19.164Z,21.30
2018-09-08T11:54:47.254Z,21.40
2018-09-08T11:57:15.345Z,21.50
2018-09-08T11:59:46.730Z,21.60
2018-09-08T12:02:14.875Z,21.70
2018-09-08T12:04:42.945Z,21.70
2018-09-08T12:07:11.030Z,21.60
2018-09-08T12:09:39.104Z,21.60
2018-09-08T12:12:07.197Z,21.50
2018-09-08T12:14:35.323Z,21.40
2018-09-08T12:17:03.419Z,21.10
2018-09-08T12:19:31.514Z,20.90
2018-09-08T12:21:59.562Z,20.60
2018-09-08T12:24:27.624Z,20.60
2018-09-08T12:26:56.545Z,20.70
2018-09-08T12:29:25.140Z,20.90
2018-09-08T12:31:53.378Z,21.00
2018-09-08T12:34:21.440Z,21.30
2018-09-08T12:36:49.523Z,21.30
2018-09-08T12:39:17.634Z,21.30
2018-09-08T12:41:45.719Z,21.50
2018-09-08T12:44:13.802Z,21.50
2018-09-08T12:46:41.946Z,21.50
2018-09-08T12:49:10.048Z,21.60
2018-09-08T12:51:38.096Z,21.60
2018-09-08T12:54:06.206Z,21.40
2018-09-08T12:56:34.637Z,21.50
2018-09-08T12:59:02.757Z,21.60
2018-09-08T13:01:30.768Z,21.60
2018-09-08T13:03:58.881Z,21.50
2018-09-08T13:06:26.953Z,21.60
2018-09-08T13:08:55.054Z,21.50
2018-09-08T13:11:23.443Z,21.40
2018-09-08T13:13:51.518Z,21.20
2018-09-08T13:16:19.642Z,21.30
2018-09-08T13:18:49.644Z,21.40
2018-09-08T13:21:17.760Z,21.30
2018-09-08T13:23:46.050Z,21.20
2018-09-08T13:26:14.111Z,21.00
2018-09-08T13:28:42.197Z,21.00
2018-09-08T13:31:10.353Z,21.00
2018-09-08T13:33:38.471Z,21.10
2018-09-08T13:36:06.556Z,21.30
2018-09-08T13:38:34.641Z,21.40
2018-09-08T13:41:02.703Z,21.60
2018-09-08T13:43:30.779Z,21.60
2018-09-08T13:45:58.884Z,21.50
2018-09-08T13:48:27.873Z,21.50
2018-09-08T13:50:55.947Z,21.50
2018-09-08T13:53:24.058Z,21.50
2018-09-08T13:55:52.131Z,21.60
2018-09-08T13:58:20.252Z,21.50
2018-09-08T14:00:48.314Z,21.50
2018-09-08T14:03:16.412Z,21.60
2018-09-08T14:05:44.511Z,21.80
2018-09-08T14:08:15.121Z,21.80
2018-09-08T14:10:43.995Z,21.70
2018-09-08T14:13:12.109Z,21.60
2018-09-08T14:15:40.229Z,21.70
2018-09-08T14:18:08.340Z,21.60
2018-09-08T14:20:36.419Z,21.70
2018-09-08T14:23:05.974Z,21.70
2018-09-08T14:25:40.778Z,21.70
2018-09-08T14:28:08.852Z,21.90
2018-09-08T14:30:36.956Z,21.90
2018-09-08T14:33:05.038Z,21.90
2018-09-08T14:35:33.138Z,21.90
2018-09-08T14:38:01.207Z,21.80
2018-09-08T14:40:29.319Z,21.60
2018-09-08T14:42:57.416Z,21.50
2018-09-08T14:45:25.837Z,21.60
2018-09-08T14:47:54.228Z,21.60
2018-09-08T14:50:22.337Z,21.60
2018-09-08T14:52:50.410Z,21.60
2018-09-08T14:55:18.528Z,21.70
2018-09-08T14:57:46.594Z,21.70
2018-09-08T15:00:14.665Z,21.80
2018-09-08T15:02:42.769Z,21.80
2018-09-08T15:05:10.854Z,21.90
2018-09-08T15:07:38.929Z,21.80
2018-09-08T15:10:07.028Z,21.90
2018-09-08T15:12:35.132Z,21.70
2018-09-08T15:15:03.204Z,21.60
2018-09-08T15:17:31.299Z,21.60
2018-09-08T15:19:59.370Z,21.50
2018-09-08T15:22:27.474Z,21.50
2018-09-08T15:24:55.542Z,21.50
2018-09-08T15:27:23.635Z,21.30
2018-09-08T15:29:51.687Z,21.20
2018-09-08T15:32:19.781Z,21.30
2018-09-08T15:34:47.885Z,21.20
2018-09-08T15:37:15.938Z,21.00
2018-09-08T15:39:44.047Z,20.90
2018-09-08T15:42:12.103Z,20.80
2018-09-08T15:44:40.208Z,20.70
2018-09-08T15:47:08.257Z,20.70
2018-09-08T15:49:36.401Z,20.70
2018-09-08T15:52:04.490Z,20.70
2018-09-08T15:54:32.585Z,20.70
2018-09-08T15:57:00.644Z,20.80
2018-09-08T15:59:28.825Z,20.90
2018-09-08T16:01:56.899Z,20.90
2018-09-08T16:04:24.990Z,20.90
2018-09-08T16:06:53.085Z,20.80
2018-09-08T16:09:21.182Z,20.80
2018-09-08T16:11:49.248Z,20.80
2018-09-08T16:14:17.341Z,20.70
2018-09-08T16:16:45.457Z,20.70
2018-09-08T16:19:13.499Z,20.80
2018-09-08T16:21:41.601Z,20.90
2018-09-08T16:24:09.796Z,20.90
2018-09-08T16:26:37.922Z,20.80
2018-09-08T16:29:06.283Z,20.80
2018-09-08T16:31:34.391Z,20.90
2018-09-08T16:34:02.582Z,20.80
2018-09-08T16:36:30.784Z,20.90
2018-09-08T16:38:59.125Z,20.90
2018-09-08T16:41:27.251Z,20.80
2018-09-08T16:43:55.321Z,20.70
2018-09-08T16:46:23.454Z,20.60
2018-09-08T16:48:51.572Z,20.50
2018-09-08T16:51:19.888Z,20.40
2018-09-08T16:53:47.961Z,20.20
2018-09-08T16:56:16.064Z,20.20
2018-09-08T16:58:44.165Z,20.10
2018-09-08T17:01:12.251Z,20.10
2018-09-08T17:06:15.071Z,20.10
2018-09-08T17:08:43.526Z,20.00
2018-09-08T17:11:11.592Z,20.00
2018-09-08T17:13:39.709Z,19.90
2018-09-08T17:16:07.848Z,19.80
2018-09-08T17:18:35.941Z,19.70
2018-09-08T17:21:04.036Z,19.60
2018-09-08T17:23:32.074Z,19.50
2018-09-08T17:26:06.128Z,19.40
2018-09-08T17:28:34.402Z,19.40
2018-09-08T17:31:02.696Z,19.30
2018-09-08T17:33:30.860Z,19.10
2018-09-08T17:35:58.929Z,19.00
2018-09-08T17:38:27.055Z,19.00
2018-09-08T17:40:55.136Z,19.00
2018-09-08T17:43:23.258Z,19.10
2018-09-08T17:45:51.448Z,19.10
2018-09-08T17:48:19.551Z,19.10
2018-09-08T17:50:47.648Z,19.00
2018-09-08T17:53:15.822Z,19.00
2018-09-08T17:55:43.895Z,18.90
2018-09-08T17:58:12.006Z,18.80
2018-09-08T18:00:40.134Z,18.80
2018-09-08T18:03:08.266Z,18.60
2018-09-08T18:05:36.381Z,18.40
2018-09-08T18:08:04.470Z,18.30
2018-09-08T18:10:32.572Z,18.20
2018-09-08T18:13:00.651Z,18.00
2018-09-08T18:15:28.724Z,18.00
2018-09-08T18:17:56.854Z,17.90
2018-09-08T18:20:24.997Z,17.90
2018-09-08T18:22:53.184Z,17.80
2018-09-08T18:25:21.271Z,17.70
2018-09-08T18:27:49.408Z,17.60
2018-09-08T18:30:17.528Z,17.60
2018-09-08T18:32:45.666Z,17.70
2018-09-08T18:35:13.690Z,17.70
2018-09-08T18:37:41.806Z,17.60
2018-09-08T18:40:09.972Z,17.50
2018-09-08T18:42:38.094Z,17.40
2018-09-08T18:45:06.256Z,17.40
2018-09-08T18:47:34.404Z,17.30
2018-09-08T18:50:02.536Z,17.30
2018-09-08T18:52:30.839Z,17.20
2018-09-08T18:54:59.169Z,17.20
2018-09-08T18:57:27.401Z,17.30
2018-09-08T18:59:55.483Z,17.30
2018-09-08T19:02:23.567Z,17.20
2018-09-08T19:04:51.605Z,17.20
2018-09-08T19:07:19.659Z,17.20
2018-09-08T19:09:51.988Z,17.10
2018-09-08T19:12:20.423Z,17.20
2018-09-08T19:14:54.032Z,17.20
2018-09-08T19:17:22.145Z,17.10
2018-09-08T19:19:52.566Z,17.00
2018-09-08T19:22:20.693Z,16.90
2018-09-08T19:24:48.815Z,16.90
2018-09-08T19:27:16.960Z,16.80
2018-09-08T19:29:48.533Z,16.80
2018-09-08T19:32:17.551Z,16.80
2018-09-08T19:34:49.911Z,16.70
2018-09-08T19:37:18.044Z,16.60
2018-09-08T19:39:46.163Z,16.60
2018-09-08T19:42:14.294Z,16.50
2018-09-08T19:44:42.452Z,16.50
2018-09-08T19:47:15.972Z,16.50
2018-09-08T19:49:44.238Z,16.60
2018-09-08T19:52:17.697Z,16.70
2018-09-08T19:54:45.847Z,16.60
2018-09-08T19:57:19.288Z,16.50
2018-09-08T19:59:47.404Z,16.50
2018-09-08T20:02:15.708Z,16.40
2018-09-08T20:04:43.921Z,16.50
2018-09-08T20:07:12.130Z,16.50
2018-09-08T20:09:40.405Z,16.50
2018-09-08T20:12:08.724Z,16.50
2018-09-08T20:14:36.800Z,16.40
2018-09-08T20:17:05.049Z,16.30
2018-09-08T20:19:33.239Z,16.20
2018-09-08T20:22:01.401Z,16.20
2018-09-08T20:24:29.589Z,16.20
2018-09-08T20:26:57.694Z,16.30
2018-09-08T20:29:25.798Z,16.30
2018-09-08T20:31:54.116Z,16.30
2018-09-08T20:34:22.207Z,16.20
2018-09-08T20:36:50.701Z,16.20
2018-09-08T20:39:18.868Z,16.30
2018-09-08T20:41:46.992Z,16.20
2018-09-08T20:44:16.468Z,16.20
2018-09-08T20:46:44.531Z,16.20
2018-09-08T20:49:12.594Z,16.30
2018-09-08T20:51:40.680Z,16.40
2018-09-08T20:54:09.369Z,16.50
2018-09-08T20:56:37.632Z,16.50
2018-09-08T20:59:06.140Z,16.60
2018-09-08T21:01:34.324Z,16.50
2018-09-08T21:04:02.398Z,16.40
2018-09-08T21:06:30.766Z,16.40
2018-09-08T21:08:58.869Z,16.40
2018-09-08T21:11:27.030Z,16.30
2018-09-08T21:13:55.139Z,16.30
2018-09-08T21:16:23.200Z,16.30
2018-09-08T21:18:51.259Z,16.30
2018-09-08T21:21:19.517Z,16.30
2018-09-08T21:23:47.695Z,16.40
2018-09-08T21:26:15.845Z,16.50
2018-09-08T21:28:44.084Z,16.60
2018-09-08T21:31:12.572Z,16.70
2018-09-08T21:33:40.883Z,16.80
2018-09-08T21:36:09.243Z,16.80
2018-09-08T21:38:37.323Z,16.80
2018-09-08T21:41:05.921Z,16.80
2018-09-08T21:43:34.024Z,16.70
2018-09-08T21:46:02.109Z,16.70
2018-09-08T21:48:30.181Z,16.70
2018-09-08T21:50:58.259Z,16.70
2018-09-08T21:53:26.545Z,16.70
2018-09-08T21:55:55.251Z,16.80
2018-09-08T21:58:23.321Z,16.90
2018-09-08T22:00:55.491Z,16.90
2018-09-08T22:03:25.760Z,16.90
2018-09-08T22:05:53.841Z,16.80
2018-09-08T22:08:21.936Z,16.80
2018-09-08T22:10:50.004Z,16.80
2018-09-08T22:13:18.102Z,16.80
2018-09-08T22:15:46.182Z,16.80
2018-09-08T22:18:14.248Z,16.80
2018-09-08T22:20:42.372Z,16.70
2018-09-08T22:23:10.474Z,16.60
2018-09-08T22:25:38.537Z,16.60
2018-09-08T22:28:06.743Z,16.50
2018-09-08T22:30:34.832Z,16.40
2018-09-08T22:33:02.969Z,16.30
2018-09-08T22:35:31.095Z,16.30
2018-09-08T22:37:59.158Z,16.30
2018-09-08T22:40:27.228Z,16.30
2018-09-08T22:42:55.337Z,16.20
2018-09-08T22:45:23.435Z,16.10
2018-09-08T22:47:51.513Z,16.00
2018-09-08T22:50:19.779Z,16.00
2018-09-08T22:52:47.874Z,16.00
2018-09-08T22:55:15.949Z,16.00
2018-09-08T22:57:44.010Z,16.00
2018-09-08T23:00:12.153Z,15.90
2018-09-08T23:02:40.230Z,16.00
2018-09-08T23:05:08.570Z,15.90
2018-09-08T23:07:36.657Z,15.90
2018-09-08T23:10:04.777Z,15.90
2018-09-08T23:12:32.923Z,15.80
2018-09-08T23:15:00.996Z,15.70
2018-09-08T23:17:29.081Z,15.70
2018-09-08T23:19:57.268Z,15.70
2018-09-08T23:22:25.377Z,15.60
2018-09-08T23:24:53.458Z,15.70
2018-09-08T23:27:21.620Z,15.70
2018-09-08T23:29:49.719Z,15.70
2018-09-08T23:32:17.799Z,15.70
2018-09-08T23:34:45.925Z,15.70
2018-09-08T23:37:14.084Z,15.70
2018-09-08T23:39:42.192Z,15.70
2018-09-08T23:42:10.280Z,15.70
2018-09-08T23:44:38.414Z,15.70
2018-09-08T23:47:06.500Z,15.60
2018-09-08T23:49:34.588Z,15.50
2018-09-08T23:52:02.684Z,15.50
2018-09-08T23:54:30.769Z,15.50
2018-09-08T23:56:58.831Z,15.40
2018-09-08T23:59:26.902Z,15.40
